sensor_id;sensor_type;location;lat;lon;timestamp;P1;durP1;ratioP1;P2;durP2;ratioP2
35745;SDS011;21870;42.812;74.628;2023-02-28T00:00:24;27.05;;;13.90;;
35745;SDS011;21870;42.812;74.628;2023-02-28T00:02:51;25.88;;;14.35;;
35745;SDS011;21870;42.812;74.628;2023-02-28T00:05:18;32.92;;;18.75;;
35745;SDS011;21870;42.812;74.628;2023-02-28T00:07:46;27.60;;;18.23;;
35745;SDS011;21870;42.812;74.628;2023-02-28T00:10:14;25.17;;;15.93;;
35745;SDS011;21870;42.812;74.628;2023-02-28T00:12:52;22.30;;;14.82;;
35745;SDS011;21870;42.812;74.628;2023-02-28T00:15:19;23.25;;;15.57;;
35745;SDS011;21870;42.812;74.628;2023-02-28T00:17:47;29.17;;;17.13;;
35745;SDS011;21870;42.812;74.628;2023-02-28T00:20:14;26.70;;;16.42;;
35745;SDS011;21870;42.812;74.628;2023-02-28T00:22:41;28.83;;;16.30;;
35745;SDS011;21870;42.812;74.628;2023-02-28T00:25:10;25.63;;;16.88;;
35745;SDS011;21870;42.812;74.628;2023-02-28T00:27:38;29.90;;;18.77;;
35745;SDS011;21870;42.812;74.628;2023-02-28T00:30:06;27.45;;;16.73;;
35745;SDS011;21870;42.812;74.628;2023-02-28T00:32:34;27.65;;;17.88;;
35745;SDS011;21870;42.812;74.628;2023-02-28T00:35:00;18.77;;;10.88;;
35745;SDS011;21870;42.812;74.628;2023-02-28T00:37:27;29.58;;;16.42;;
35745;SDS011;21870;42.812;74.628;2023-02-28T00:39:53;43.40;;;28.67;;
35745;SDS011;21870;42.812;74.628;2023-02-28T00:42:19;38.05;;;20.50;;
35745;SDS011;21870;42.812;74.628;2023-02-28T00:44:45;31.70;;;18.10;;
35745;SDS011;21870;42.812;74.628;2023-02-28T00:47:11;31.10;;;19.75;;
35745;SDS011;21870;42.812;74.628;2023-02-28T00:49:37;26.25;;;16.63;;
35745;SDS011;21870;42.812;74.628;2023-02-28T00:52:03;36.13;;;17.83;;
35745;SDS011;21870;42.812;74.628;2023-02-28T00:54:29;27.48;;;17.67;;
35745;SDS011;21870;42.812;74.628;2023-02-28T00:56:55;34.67;;;17.13;;
35745;SDS011;21870;42.812;74.628;2023-02-28T00:59:21;70.28;;;20.75;;
35745;SDS011;21870;42.812;74.628;2023-02-28T01:01:47;64.53;;;20.50;;
35745;SDS011;21870;42.812;74.628;2023-02-28T01:04:14;30.92;;;16.83;;
35745;SDS011;21870;42.812;74.628;2023-02-28T01:06:40;34.92;;;18.08;;
35745;SDS011;21870;42.812;74.628;2023-02-28T01:09:07;26.35;;;14.60;;
35745;SDS011;21870;42.812;74.628;2023-02-28T01:11:34;62.53;;;20.90;;
35745;SDS011;21870;42.812;74.628;2023-02-28T01:14:00;35.03;;;17.55;;
35745;SDS011;21870;42.812;74.628;2023-02-28T01:16:27;44.08;;;17.92;;
35745;SDS011;21870;42.812;74.628;2023-02-28T01:18:54;26.92;;;18.35;;
35745;SDS011;21870;42.812;74.628;2023-02-28T01:21:20;34.05;;;18.17;;
35745;SDS011;21870;42.812;74.628;2023-02-28T01:23:47;25.42;;;18.20;;
35745;SDS011;21870;42.812;74.628;2023-02-28T01:26:15;32.28;;;17.83;;
35745;SDS011;21870;42.812;74.628;2023-02-28T01:28:42;28.15;;;16.55;;
35745;SDS011;21870;42.812;74.628;2023-02-28T01:31:09;27.70;;;16.58;;
35745;SDS011;21870;42.812;74.628;2023-02-28T01:33:38;16.23;;;10.35;;
35745;SDS011;21870;42.812;74.628;2023-02-28T01:36:06;22.00;;;13.30;;
35745;SDS011;21870;42.812;74.628;2023-02-28T01:38:50;24.15;;;13.73;;
35745;SDS011;21870;42.812;74.628;2023-02-28T01:46:12;59.75;;;23.10;;
35745;SDS011;21870;42.812;74.628;2023-02-28T01:48:44;49.80;;;20.40;;
35745;SDS011;21870;42.812;74.628;2023-02-28T01:51:19;49.03;;;23.30;;
35745;SDS011;21870;42.812;74.628;2023-02-28T01:53:55;47.60;;;22.90;;
35745;SDS011;21870;42.812;74.628;2023-02-28T01:56:29;41.13;;;21.85;;
35745;SDS011;21870;42.812;74.628;2023-02-28T01:58:58;54.10;;;21.98;;
35745;SDS011;21870;42.812;74.628;2023-02-28T02:01:25;47.95;;;22.48;;
35745;SDS011;21870;42.812;74.628;2023-02-28T02:03:53;50.58;;;22.67;;
35745;SDS011;21870;42.812;74.628;2023-02-28T02:06:22;38.85;;;21.45;;
35745;SDS011;21870;42.812;74.628;2023-02-28T02:08:54;38.65;;;19.50;;
35745;SDS011;21870;42.812;74.628;2023-02-28T02:11:20;54.08;;;29.00;;
35745;SDS011;21870;42.812;74.628;2023-02-28T02:30:58;34.28;;;20.13;;
35745;SDS011;21870;42.812;74.628;2023-02-28T02:37:02;38.75;;;14.13;;
35745;SDS011;21870;42.812;74.628;2023-02-28T02:39:50;41.42;;;17.27;;
35745;SDS011;21870;42.812;74.628;2023-02-28T02:42:31;39.92;;;17.73;;
35745;SDS011;21870;42.812;74.628;2023-02-28T02:47:49;36.17;;;17.10;;
35745;SDS011;21870;42.812;74.628;2023-02-28T02:50:21;32.70;;;14.10;;
35745;SDS011;21870;42.812;74.628;2023-02-28T02:52:52;32.05;;;16.42;;
35745;SDS011;21870;42.812;74.628;2023-02-28T02:55:22;38.80;;;17.02;;
35745;SDS011;21870;42.812;74.628;2023-02-28T02:57:57;38.70;;;19.63;;
35745;SDS011;21870;42.812;74.628;2023-02-28T03:00:30;48.28;;;21.98;;
35745;SDS011;21870;42.812;74.628;2023-02-28T03:02:59;44.28;;;21.70;;
35745;SDS011;21870;42.812;74.628;2023-02-28T03:05:29;56.92;;;22.65;;
35745;SDS011;21870;42.812;74.628;2023-02-28T03:08:04;65.95;;;24.73;;
35745;SDS011;21870;42.812;74.628;2023-02-28T03:10:33;137.38;;;25.23;;
35745;SDS011;21870;42.812;74.628;2023-02-28T03:13:27;102.93;;;25.30;;
35745;SDS011;21870;42.812;74.628;2023-02-28T03:18:54;96.60;;;24.25;;
35745;SDS011;21870;42.812;74.628;2023-02-28T03:24:19;47.92;;;15.32;;
35745;SDS011;21870;42.812;74.628;2023-02-28T03:29:57;93.53;;;20.08;;
35745;SDS011;21870;42.812;74.628;2023-02-28T03:32:39;57.15;;;21.20;;
35745;SDS011;21870;42.812;74.628;2023-02-28T03:35:08;58.88;;;30.73;;
35745;SDS011;21870;42.812;74.628;2023-02-28T03:37:40;94.70;;;52.97;;
35745;SDS011;21870;42.812;74.628;2023-02-28T03:40:11;79.75;;;43.75;;
35745;SDS011;21870;42.812;74.628;2023-02-28T03:42:51;116.43;;;60.42;;
35745;SDS011;21870;42.812;74.628;2023-02-28T03:45:25;98.53;;;49.13;;
35745;SDS011;21870;42.812;74.628;2023-02-28T03:47:57;66.18;;;35.72;;
35745;SDS011;21870;42.812;74.628;2023-02-28T03:50:30;55.53;;;26.92;;
35745;SDS011;21870;42.812;74.628;2023-02-28T03:53:29;45.30;;;22.98;;
35745;SDS011;21870;42.812;74.628;2023-02-28T03:56:03;52.00;;;21.63;;
35745;SDS011;21870;42.812;74.628;2023-02-28T04:01:27;44.05;;;20.30;;
35745;SDS011;21870;42.812;74.628;2023-02-28T04:03:59;50.33;;;22.90;;
35745;SDS011;21870;42.812;74.628;2023-02-28T04:06:25;43.42;;;21.42;;
35745;SDS011;21870;42.812;74.628;2023-02-28T04:08:52;37.17;;;19.80;;
35745;SDS011;21870;42.812;74.628;2023-02-28T04:13:58;42.10;;;17.20;;
35745;SDS011;21870;42.812;74.628;2023-02-28T04:16:24;30.40;;;15.02;;
35745;SDS011;21870;42.812;74.628;2023-02-28T04:18:50;32.50;;;15.95;;
35745;SDS011;21870;42.812;74.628;2023-02-28T04:21:16;27.45;;;12.68;;
35745;SDS011;21870;42.812;74.628;2023-02-28T04:23:45;13.93;;;6.55;;
35745;SDS011;21870;42.812;74.628;2023-02-28T04:26:11;19.25;;;7.90;;
35745;SDS011;21870;42.812;74.628;2023-02-28T04:28:38;22.10;;;10.82;;
35745;SDS011;21870;42.812;74.628;2023-02-28T04:31:04;18.90;;;10.02;;
35745;SDS011;21870;42.812;74.628;2023-02-28T04:33:31;22.17;;;9.82;;
35745;SDS011;21870;42.812;74.628;2023-02-28T04:35:58;21.08;;;9.00;;
35745;SDS011;21870;42.812;74.628;2023-02-28T04:38:29;19.17;;;8.65;;
35745;SDS011;21870;42.812;74.628;2023-02-28T04:40:58;14.98;;;9.48;;
35745;SDS011;21870;42.812;74.628;2023-02-28T04:43:28;22.48;;;10.32;;
35745;SDS011;21870;42.812;74.628;2023-02-28T04:45:55;19.65;;;9.27;;
35745;SDS011;21870;42.812;74.628;2023-02-28T04:48:25;23.55;;;12.80;;
35745;SDS011;21870;42.812;74.628;2023-02-28T04:50:59;23.17;;;11.35;;
35745;SDS011;21870;42.812;74.628;2023-02-28T04:53:27;23.33;;;8.85;;
35745;SDS011;21870;42.812;74.628;2023-02-28T04:55:54;15.95;;;8.40;;
35745;SDS011;21870;42.812;74.628;2023-02-28T04:58:21;10.93;;;5.85;;
35745;SDS011;21870;42.812;74.628;2023-02-28T05:00:51;15.63;;;6.93;;
35745;SDS011;21870;42.812;74.628;2023-02-28T05:03:18;15.68;;;7.32;;
35745;SDS011;21870;42.812;74.628;2023-02-28T05:05:46;15.52;;;8.48;;
35745;SDS011;21870;42.812;74.628;2023-02-28T05:08:12;20.33;;;8.40;;
35745;SDS011;21870;42.812;74.628;2023-02-28T05:10:38;18.80;;;8.40;;
35745;SDS011;21870;42.812;74.628;2023-02-28T05:13:04;21.58;;;8.80;;
35745;SDS011;21870;42.812;74.628;2023-02-28T05:15:30;17.13;;;9.23;;
35745;SDS011;21870;42.812;74.628;2023-02-28T05:17:57;20.05;;;10.63;;
35745;SDS011;21870;42.812;74.628;2023-02-28T05:20:23;35.72;;;11.43;;
35745;SDS011;21870;42.812;74.628;2023-02-28T05:22:49;26.17;;;11.23;;
35745;SDS011;21870;42.812;74.628;2023-02-28T05:25:16;20.88;;;10.98;;
35745;SDS011;21870;42.812;74.628;2023-02-28T05:27:45;29.00;;;11.23;;
35745;SDS011;21870;42.812;74.628;2023-02-28T05:30:11;25.80;;;9.25;;
35745;SDS011;21870;42.812;74.628;2023-02-28T05:32:37;20.42;;;10.65;;
35745;SDS011;21870;42.812;74.628;2023-02-28T05:35:08;26.60;;;11.25;;
35745;SDS011;21870;42.812;74.628;2023-02-28T05:37:38;21.67;;;10.68;;
35745;SDS011;21870;42.812;74.628;2023-02-28T05:40:05;22.63;;;10.20;;
35745;SDS011;21870;42.812;74.628;2023-02-28T05:42:34;20.35;;;10.85;;
35745;SDS011;21870;42.812;74.628;2023-02-28T05:45:00;18.75;;;9.88;;
35745;SDS011;21870;42.812;74.628;2023-02-28T05:47:26;22.80;;;10.52;;
35745;SDS011;21870;42.812;74.628;2023-02-28T05:49:52;18.80;;;9.95;;
35745;SDS011;21870;42.812;74.628;2023-02-28T05:52:18;20.55;;;10.05;;
35745;SDS011;21870;42.812;74.628;2023-02-28T05:54:44;31.80;;;10.95;;
35745;SDS011;21870;42.812;74.628;2023-02-28T05:57:14;31.70;;;12.65;;
35745;SDS011;21870;42.812;74.628;2023-02-28T05:59:41;25.02;;;9.77;;
35745;SDS011;21870;42.812;74.628;2023-02-28T06:02:14;24.45;;;10.63;;
35745;SDS011;21870;42.812;74.628;2023-02-28T06:04:41;23.48;;;11.23;;
35745;SDS011;21870;42.812;74.628;2023-02-28T06:07:08;32.13;;;13.32;;
35745;SDS011;21870;42.812;74.628;2023-02-28T06:09:35;30.48;;;11.45;;
35745;SDS011;21870;42.812;74.628;2023-02-28T06:12:02;22.90;;;11.00;;
35745;SDS011;21870;42.812;74.628;2023-02-28T06:14:31;35.70;;;12.32;;
35745;SDS011;21870;42.812;74.628;2023-02-28T06:16:59;42.33;;;15.27;;
35745;SDS011;21870;42.812;74.628;2023-02-28T06:19:25;44.08;;;12.93;;
35745;SDS011;21870;42.812;74.628;2023-02-28T06:21:52;16.30;;;9.02;;
35745;SDS011;21870;42.812;74.628;2023-02-28T06:24:23;21.85;;;9.23;;
35745;SDS011;21870;42.812;74.628;2023-02-28T06:26:50;27.67;;;9.63;;
35745;SDS011;21870;42.812;74.628;2023-02-28T06:29:16;24.02;;;10.88;;
35745;SDS011;21870;42.812;74.628;2023-02-28T06:31:46;25.15;;;10.68;;
35745;SDS011;21870;42.812;74.628;2023-02-28T06:34:12;28.92;;;11.80;;
35745;SDS011;21870;42.812;74.628;2023-02-28T06:36:39;18.60;;;10.27;;
35745;SDS011;21870;42.812;74.628;2023-02-28T06:39:06;19.88;;;9.35;;
35745;SDS011;21870;42.812;74.628;2023-02-28T06:41:33;22.80;;;9.02;;
35745;SDS011;21870;42.812;74.628;2023-02-28T06:44:10;17.73;;;8.10;;
35745;SDS011;21870;42.812;74.628;2023-02-28T06:46:41;36.33;;;9.65;;
35745;SDS011;21870;42.812;74.628;2023-02-28T06:49:09;18.52;;;8.10;;
35745;SDS011;21870;42.812;74.628;2023-02-28T06:51:36;18.27;;;6.95;;
35745;SDS011;21870;42.812;74.628;2023-02-28T06:54:04;16.58;;;8.32;;
35745;SDS011;21870;42.812;74.628;2023-02-28T06:56:34;14.45;;;6.82;;
35745;SDS011;21870;42.812;74.628;2023-02-28T06:59:00;19.33;;;7.88;;
35745;SDS011;21870;42.812;74.628;2023-02-28T07:01:27;22.33;;;7.30;;
35745;SDS011;21870;42.812;74.628;2023-02-28T07:03:53;19.83;;;7.00;;
35745;SDS011;21870;42.812;74.628;2023-02-28T07:06:22;17.13;;;5.50;;
35745;SDS011;21870;42.812;74.628;2023-02-28T07:08:50;13.32;;;4.65;;
35745;SDS011;21870;42.812;74.628;2023-02-28T07:11:20;7.47;;;3.97;;
35745;SDS011;21870;42.812;74.628;2023-02-28T07:13:48;13.93;;;5.72;;
35745;SDS011;21870;42.812;74.628;2023-02-28T07:16:16;14.00;;;5.07;;
35745;SDS011;21870;42.812;74.628;2023-02-28T07:18:42;13.63;;;4.80;;
35745;SDS011;21870;42.812;74.628;2023-02-28T07:21:11;14.38;;;5.88;;
35745;SDS011;21870;42.812;74.628;2023-02-28T07:23:38;14.48;;;6.05;;
35745;SDS011;21870;42.812;74.628;2023-02-28T07:26:05;23.02;;;7.40;;
35745;SDS011;21870;42.812;74.628;2023-02-28T07:28:32;14.63;;;8.02;;
35745;SDS011;21870;42.812;74.628;2023-02-28T07:31:05;19.20;;;8.60;;
35745;SDS011;21870;42.812;74.628;2023-02-28T07:33:32;18.42;;;9.63;;
35745;SDS011;21870;42.812;74.628;2023-02-28T07:36:06;27.48;;;12.00;;
35745;SDS011;21870;42.812;74.628;2023-02-28T07:38:34;30.50;;;12.85;;
35745;SDS011;21870;42.812;74.628;2023-02-28T07:41:01;26.27;;;12.43;;
35745;SDS011;21870;42.812;74.628;2023-02-28T07:43:29;32.35;;;15.25;;
35745;SDS011;21870;42.812;74.628;2023-02-28T07:46:00;27.17;;;15.50;;
35745;SDS011;21870;42.812;74.628;2023-02-28T07:48:37;27.27;;;16.73;;
35745;SDS011;21870;42.812;74.628;2023-02-28T07:51:03;33.63;;;16.58;;
35745;SDS011;21870;42.812;74.628;2023-02-28T07:53:30;37.17;;;15.23;;
35745;SDS011;21870;42.812;74.628;2023-02-28T07:56:00;30.73;;;13.77;;
35745;SDS011;21870;42.812;74.628;2023-02-28T07:58:27;26.70;;;13.27;;
35745;SDS011;21870;42.812;74.628;2023-02-28T08:00:54;20.60;;;12.20;;
35745;SDS011;21870;42.812;74.628;2023-02-28T08:03:21;17.23;;;10.98;;
35745;SDS011;21870;42.812;74.628;2023-02-28T08:05:48;22.52;;;11.48;;
35745;SDS011;21870;42.812;74.628;2023-02-28T08:08:15;20.80;;;12.77;;
35745;SDS011;21870;42.812;74.628;2023-02-28T08:10:42;27.35;;;12.73;;
35745;SDS011;21870;42.812;74.628;2023-02-28T08:13:08;30.60;;;13.65;;
35745;SDS011;21870;42.812;74.628;2023-02-28T08:15:35;19.85;;;11.77;;
35745;SDS011;21870;42.812;74.628;2023-02-28T08:18:01;24.20;;;13.73;;
35745;SDS011;21870;42.812;74.628;2023-02-28T08:20:28;27.33;;;13.18;;
35745;SDS011;21870;42.812;74.628;2023-02-28T08:22:54;21.45;;;12.57;;
35745;SDS011;21870;42.812;74.628;2023-02-28T08:25:20;21.38;;;11.93;;
35745;SDS011;21870;42.812;74.628;2023-02-28T08:27:46;20.73;;;13.32;;
35745;SDS011;21870;42.812;74.628;2023-02-28T08:30:12;24.15;;;12.88;;
35745;SDS011;21870;42.812;74.628;2023-02-28T08:32:39;21.17;;;13.35;;
35745;SDS011;21870;42.812;74.628;2023-02-28T08:35:06;19.75;;;11.63;;
35745;SDS011;21870;42.812;74.628;2023-02-28T08:37:34;24.27;;;12.65;;
35745;SDS011;21870;42.812;74.628;2023-02-28T08:40:00;23.70;;;13.48;;
35745;SDS011;21870;42.812;74.628;2023-02-28T08:42:26;25.75;;;12.63;;
35745;SDS011;21870;42.812;74.628;2023-02-28T08:44:52;30.55;;;13.98;;
35745;SDS011;21870;42.812;74.628;2023-02-28T08:47:19;21.77;;;11.95;;
35745;SDS011;21870;42.812;74.628;2023-02-28T08:49:45;27.02;;;13.07;;
35745;SDS011;21870;42.812;74.628;2023-02-28T08:52:11;27.60;;;14.48;;
35745;SDS011;21870;42.812;74.628;2023-02-28T08:54:37;23.48;;;13.48;;
35745;SDS011;21870;42.812;74.628;2023-02-28T08:57:03;25.23;;;11.93;;
35745;SDS011;21870;42.812;74.628;2023-02-28T08:59:29;27.42;;;15.82;;
35745;SDS011;21870;42.812;74.628;2023-02-28T09:01:56;45.65;;;26.63;;
35745;SDS011;21870;42.812;74.628;2023-02-28T09:04:22;49.42;;;29.77;;
35745;SDS011;21870;42.812;74.628;2023-02-28T09:06:48;40.50;;;27.50;;
35745;SDS011;21870;42.812;74.628;2023-02-28T09:09:14;48.70;;;27.25;;
35745;SDS011;21870;42.812;74.628;2023-02-28T09:11:41;42.05;;;26.75;;
35745;SDS011;21870;42.812;74.628;2023-02-28T09:14:07;50.88;;;27.45;;
35745;SDS011;21870;42.812;74.628;2023-02-28T09:16:33;46.97;;;27.33;;
35745;SDS011;21870;42.812;74.628;2023-02-28T09:19:00;35.25;;;23.63;;
35745;SDS011;21870;42.812;74.628;2023-02-28T09:21:26;39.38;;;23.80;;
35745;SDS011;21870;42.812;74.628;2023-02-28T09:23:53;40.83;;;21.17;;
35745;SDS011;21870;42.812;74.628;2023-02-28T09:26:23;38.05;;;20.42;;
35745;SDS011;21870;42.812;74.628;2023-02-28T09:28:52;34.15;;;17.85;;
35745;SDS011;21870;42.812;74.628;2023-02-28T09:31:20;40.38;;;18.75;;
35745;SDS011;21870;42.812;74.628;2023-02-28T09:33:49;26.83;;;16.13;;
35745;SDS011;21870;42.812;74.628;2023-02-28T09:36:16;33.00;;;19.23;;
35745;SDS011;21870;42.812;74.628;2023-02-28T09:38:43;43.45;;;19.92;;
35745;SDS011;21870;42.812;74.628;2023-02-28T09:41:15;28.33;;;16.23;;
35745;SDS011;21870;42.812;74.628;2023-02-28T09:43:56;28.10;;;17.45;;
35745;SDS011;21870;42.812;74.628;2023-02-28T09:46:44;32.33;;;15.82;;
35745;SDS011;21870;42.812;74.628;2023-02-28T09:49:16;28.60;;;16.95;;
35745;SDS011;21870;42.812;74.628;2023-02-28T09:54:26;29.17;;;18.58;;
35745;SDS011;21870;42.812;74.628;2023-02-28T10:05:16;31.42;;;16.15;;
35745;SDS011;21870;42.812;74.628;2023-02-28T10:10:26;45.92;;;21.55;;
35745;SDS011;21870;42.812;74.628;2023-02-28T10:15:43;43.22;;;23.83;;
35745;SDS011;21870;42.812;74.628;2023-02-28T10:18:13;36.60;;;22.98;;
35745;SDS011;21870;42.812;74.628;2023-02-28T10:20:45;34.60;;;21.40;;
35745;SDS011;21870;42.812;74.628;2023-02-28T10:23:19;37.20;;;21.48;;
35745;SDS011;21870;42.812;74.628;2023-02-28T10:25:52;43.97;;;20.48;;
35745;SDS011;21870;42.812;74.628;2023-02-28T10:28:24;31.55;;;21.90;;
35745;SDS011;21870;42.812;74.628;2023-02-28T10:30:51;32.05;;;21.20;;
35745;SDS011;21870;42.812;74.628;2023-02-28T10:33:28;43.42;;;21.95;;
35745;SDS011;21870;42.812;74.628;2023-02-28T10:35:59;42.33;;;25.25;;
35745;SDS011;21870;42.812;74.628;2023-02-28T10:38:37;61.67;;;26.90;;
35745;SDS011;21870;42.812;74.628;2023-02-28T10:41:05;47.67;;;26.13;;
35745;SDS011;21870;42.812;74.628;2023-02-28T10:43:37;45.13;;;24.77;;
35745;SDS011;21870;42.812;74.628;2023-02-28T10:51:00;47.72;;;27.42;;
35745;SDS011;21870;42.812;74.628;2023-02-28T10:58:51;39.78;;;27.38;;
35745;SDS011;21870;42.812;74.628;2023-02-28T11:01:24;52.10;;;29.48;;
35745;SDS011;21870;42.812;74.628;2023-02-28T11:04:00;49.50;;;29.83;;
35745;SDS011;21870;42.812;74.628;2023-02-28T11:06:31;53.60;;;28.98;;
35745;SDS011;21870;42.812;74.628;2023-02-28T11:08:59;42.53;;;26.52;;
35745;SDS011;21870;42.812;74.628;2023-02-28T11:11:29;47.97;;;27.13;;
35745;SDS011;21870;42.812;74.628;2023-02-28T11:14:07;45.80;;;27.70;;
35745;SDS011;21870;42.812;74.628;2023-02-28T11:16:46;47.25;;;26.48;;
35745;SDS011;21870;42.812;74.628;2023-02-28T11:19:18;44.90;;;24.63;;
35745;SDS011;21870;42.812;74.628;2023-02-28T11:22:00;36.30;;;21.77;;
35745;SDS011;21870;42.812;74.628;2023-02-28T11:24:28;48.03;;;25.10;;
35745;SDS011;21870;42.812;74.628;2023-02-28T11:26:59;40.58;;;21.50;;
35745;SDS011;21870;42.812;74.628;2023-02-28T11:29:32;51.92;;;23.33;;
35745;SDS011;21870;42.812;74.628;2023-02-28T11:32:19;159.27;;;31.83;;
35745;SDS011;21870;42.812;74.628;2023-02-28T11:34:59;46.97;;;19.42;;
35745;SDS011;21870;42.812;74.628;2023-02-28T11:37:28;42.22;;;18.75;;
35745;SDS011;21870;42.812;74.628;2023-02-28T11:39:56;33.42;;;17.27;;
35745;SDS011;21870;42.812;74.628;2023-02-28T11:50:47;35.72;;;19.45;;
35745;SDS011;21870;42.812;74.628;2023-02-28T11:56:16;36.17;;;18.20;;
35745;SDS011;21870;42.812;74.628;2023-02-28T11:59:13;33.38;;;18.48;;
35745;SDS011;21870;42.812;74.628;2023-02-28T12:02:35;41.95;;;20.27;;
35745;SDS011;21870;42.812;74.628;2023-02-28T12:05:24;48.97;;;20.50;;
35745;SDS011;21870;42.812;74.628;2023-02-28T12:08:03;44.28;;;20.77;;
35745;SDS011;21870;42.812;74.628;2023-02-28T12:18:38;36.63;;;22.10;;
35745;SDS011;21870;42.812;74.628;2023-02-28T12:21:14;37.22;;;20.63;;
35745;SDS011;21870;42.812;74.628;2023-02-28T12:26:48;39.45;;;21.95;;
35745;SDS011;21870;42.812;74.628;2023-02-28T12:29:21;32.35;;;21.15;;
35745;SDS011;21870;42.812;74.628;2023-02-28T12:35:06;36.40;;;20.75;;
35745;SDS011;21870;42.812;74.628;2023-02-28T12:43:12;43.75;;;21.13;;
35745;SDS011;21870;42.812;74.628;2023-02-28T12:45:46;35.63;;;20.05;;
35745;SDS011;21870;42.812;74.628;2023-02-28T12:51:05;36.80;;;20.10;;
35745;SDS011;21870;42.812;74.628;2023-02-28T12:56:18;54.97;;;31.63;;
35745;SDS011;21870;42.812;74.628;2023-02-28T13:04:43;45.75;;;24.70;;
35745;SDS011;21870;42.812;74.628;2023-02-28T13:07:29;35.72;;;21.90;;
35745;SDS011;21870;42.812;74.628;2023-02-28T13:10:02;44.80;;;23.25;;
35745;SDS011;21870;42.812;74.628;2023-02-28T13:12:32;41.42;;;23.75;;
35745;SDS011;21870;42.812;74.628;2023-02-28T13:15:18;39.10;;;22.10;;
35745;SDS011;21870;42.812;74.628;2023-02-28T13:17:52;41.30;;;20.80;;
35745;SDS011;21870;42.812;74.628;2023-02-28T13:20:21;39.22;;;22.83;;
35745;SDS011;21870;42.812;74.628;2023-02-28T13:22:51;45.13;;;23.45;;
35745;SDS011;21870;42.812;74.628;2023-02-28T13:27:57;43.55;;;23.70;;
35745;SDS011;21870;42.812;74.628;2023-02-28T13:46:26;39.88;;;25.00;;
35745;SDS011;21870;42.812;74.628;2023-02-28T13:48:53;49.30;;;24.23;;
35745;SDS011;21870;42.812;74.628;2023-02-28T13:57:34;37.92;;;25.65;;
35745;SDS011;21870;42.812;74.628;2023-02-28T13:59:54;36.75;;;24.85;;
35745;SDS011;21870;42.812;74.628;2023-02-28T14:05:42;35.47;;;23.30;;
35745;SDS011;21870;42.812;74.628;2023-02-28T14:08:16;37.47;;;21.98;;
35745;SDS011;21870;42.812;74.628;2023-02-28T14:10:49;33.17;;;22.23;;
35745;SDS011;21870;42.812;74.628;2023-02-28T14:16:13;36.65;;;19.40;;
35745;SDS011;21870;42.812;74.628;2023-02-28T14:18:55;28.08;;;19.35;;
35745;SDS011;21870;42.812;74.628;2023-02-28T14:23:58;33.60;;;21.17;;
35745;SDS011;21870;42.812;74.628;2023-02-28T14:32:06;26.77;;;18.23;;
35745;SDS011;21870;42.812;74.628;2023-02-28T14:37:27;30.15;;;21.55;;
35745;SDS011;21870;42.812;74.628;2023-02-28T14:39:56;35.60;;;22.15;;
35745;SDS011;21870;42.812;74.628;2023-02-28T14:42:30;34.05;;;20.50;;
35745;SDS011;21870;42.812;74.628;2023-02-28T14:44:58;33.05;;;23.02;;
35745;SDS011;21870;42.812;74.628;2023-02-28T14:47:27;27.80;;;17.67;;
35745;SDS011;21870;42.812;74.628;2023-02-28T14:49:56;24.08;;;17.48;;
35745;SDS011;21870;42.812;74.628;2023-02-28T14:52:24;26.42;;;15.25;;
35745;SDS011;21870;42.812;74.628;2023-02-28T14:54:59;42.67;;;23.27;;
35745;SDS011;21870;42.812;74.628;2023-02-28T14:57:33;45.05;;;23.90;;
35745;SDS011;21870;42.812;74.628;2023-02-28T15:02:41;30.50;;;19.83;;
35745;SDS011;21870;42.812;74.628;2023-02-28T15:07:42;28.52;;;16.95;;
35745;SDS011;21870;42.812;74.628;2023-02-28T15:10:10;30.00;;;16.65;;
35745;SDS011;21870;42.812;74.628;2023-02-28T15:12:51;35.42;;;20.30;;
35745;SDS011;21870;42.812;74.628;2023-02-28T15:15:21;47.45;;;24.67;;
35745;SDS011;21870;42.812;74.628;2023-02-28T15:17:52;40.72;;;24.45;;
35745;SDS011;21870;42.812;74.628;2023-02-28T15:20:21;39.38;;;23.17;;
35745;SDS011;21870;42.812;74.628;2023-02-28T15:22:50;53.58;;;24.58;;
35745;SDS011;21870;42.812;74.628;2023-02-28T15:25:18;40.88;;;25.98;;
35745;SDS011;21870;42.812;74.628;2023-02-28T15:27:50;44.58;;;25.10;;
35745;SDS011;21870;42.812;74.628;2023-02-28T15:30:26;45.30;;;27.33;;
35745;SDS011;21870;42.812;74.628;2023-02-28T15:35:44;39.15;;;23.85;;
35745;SDS011;21870;42.812;74.628;2023-02-28T15:38:15;37.35;;;20.38;;
35745;SDS011;21870;42.812;74.628;2023-02-28T15:40:49;35.38;;;22.05;;
35745;SDS011;21870;42.812;74.628;2023-02-28T15:43:24;59.85;;;27.73;;
35745;SDS011;21870;42.812;74.628;2023-02-28T15:48:53;34.22;;;21.13;;
35745;SDS011;21870;42.812;74.628;2023-02-28T15:51:55;40.20;;;24.40;;
35745;SDS011;21870;42.812;74.628;2023-02-28T15:54:20;37.80;;;22.25;;
35745;SDS011;21870;42.812;74.628;2023-02-28T15:57:05;34.70;;;21.13;;
35745;SDS011;21870;42.812;74.628;2023-02-28T15:59:36;35.88;;;22.15;;
35745;SDS011;21870;42.812;74.628;2023-02-28T16:02:13;38.85;;;21.52;;
35745;SDS011;21870;42.812;74.628;2023-02-28T16:07:25;42.28;;;22.90;;
35745;SDS011;21870;42.812;74.628;2023-02-28T16:09:52;31.83;;;20.73;;
35745;SDS011;21870;42.812;74.628;2023-02-28T16:12:19;34.67;;;21.00;;
35745;SDS011;21870;42.812;74.628;2023-02-28T16:14:47;35.53;;;21.98;;
35745;SDS011;21870;42.812;74.628;2023-02-28T16:17:21;39.00;;;22.55;;
35745;SDS011;21870;42.812;74.628;2023-02-28T16:19:49;42.97;;;26.23;;
35745;SDS011;21870;42.812;74.628;2023-02-28T16:22:15;51.40;;;32.00;;
35745;SDS011;21870;42.812;74.628;2023-02-28T16:24:42;46.35;;;28.17;;
35745;SDS011;21870;42.812;74.628;2023-02-28T16:27:30;50.38;;;31.13;;
35745;SDS011;21870;42.812;74.628;2023-02-28T16:30:00;46.67;;;26.63;;
35745;SDS011;21870;42.812;74.628;2023-02-28T16:32:34;40.33;;;25.58;;
35745;SDS011;21870;42.812;74.628;2023-02-28T16:35:02;37.10;;;22.77;;
35745;SDS011;21870;42.812;74.628;2023-02-28T16:37:28;37.17;;;23.67;;
35745;SDS011;21870;42.812;74.628;2023-02-28T16:39:54;38.42;;;24.50;;
35745;SDS011;21870;42.812;74.628;2023-02-28T16:42:22;35.53;;;20.85;;
35745;SDS011;21870;42.812;74.628;2023-02-28T16:44:51;39.72;;;30.83;;
35745;SDS011;21870;42.812;74.628;2023-02-28T16:47:18;36.95;;;28.52;;
35745;SDS011;21870;42.812;74.628;2023-02-28T16:49:44;30.05;;;19.63;;
35745;SDS011;21870;42.812;74.628;2023-02-28T16:52:12;33.30;;;18.85;;
35745;SDS011;21870;42.812;74.628;2023-02-28T16:54:40;29.55;;;19.88;;
35745;SDS011;21870;42.812;74.628;2023-02-28T16:57:08;34.83;;;22.98;;
35745;SDS011;21870;42.812;74.628;2023-02-28T16:59:46;36.20;;;20.70;;
35745;SDS011;21870;42.812;74.628;2023-02-28T17:02:14;37.55;;;20.73;;
35745;SDS011;21870;42.812;74.628;2023-02-28T17:04:41;34.85;;;20.83;;
35745;SDS011;21870;42.812;74.628;2023-02-28T17:07:10;25.95;;;17.75;;
35745;SDS011;21870;42.812;74.628;2023-02-28T17:09:38;33.95;;;19.70;;
35745;SDS011;21870;42.812;74.628;2023-02-28T17:12:04;31.08;;;19.35;;
35745;SDS011;21870;42.812;74.628;2023-02-28T17:14:30;28.60;;;17.80;;